createdAt,value
2019-03-29T00:00:55.844Z,30.97
2019-03-29T00:03:26.111Z,29.85
2019-03-29T00:05:56.147Z,31.15
2019-03-29T00:08:26.167Z,30.27
2019-03-29T00:10:56.991Z,26.75
2019-03-29T00:13:27.226Z,28.40
2019-03-29T00:15:57.310Z,31.75
2019-03-29T00:18:27.446Z,37.25
2019-03-29T00:20:57.484Z,37.08
2019-03-29T00:23:27.482Z,29.55
2019-03-29T00:25:59.057Z,31.87
2019-03-29T00:28:29.207Z,28.27
2019-03-29T00:30:59.070Z,32.78
2019-03-29T00:33:29.583Z,30.27
2019-03-29T00:35:59.887Z,29.85
2019-03-29T00:38:29.906Z,27.75
2019-03-29T00:40:59.809Z,30.32
2019-03-29T00:43:31.222Z,30.50
2019-03-29T00:46:01.031Z,28.77
2019-03-29T00:48:31.226Z,29.23
2019-03-29T00:51:01.142Z,24.55
2019-03-29T00:53:31.247Z,33.88
2019-03-29T00:56:01.025Z,26.70
2019-03-29T00:58:30.806Z,31.02
2019-03-29T01:01:01.590Z,32.35
2019-03-29T01:03:31.512Z,32.95
2019-03-29T01:06:01.439Z,32.20
2019-03-29T01:08:31.266Z,27.85
2019-03-29T01:11:01.219Z,32.08
2019-03-29T01:13:31.086Z,29.42
2019-03-29T01:16:01.814Z,30.60
2019-03-29T01:18:31.783Z,31.80
2019-03-29T01:21:01.753Z,31.60
2019-03-29T01:23:31.863Z,32.03
2019-03-29T01:26:02.466Z,30.43
2019-03-29T01:28:32.438Z,30.77
2019-03-29T01:31:02.729Z,34.30
2019-03-29T01:33:33.222Z,32.93
2019-03-29T01:36:03.190Z,35.15
2019-03-29T01:38:33.479Z,29.05
2019-03-29T01:41:03.790Z,36.63
2019-03-29T01:43:34.063Z,32.80
2019-03-29T01:46:04.134Z,32.55
2019-03-29T01:48:34.455Z,29.63
2019-03-29T01:51:04.668Z,30.02
2019-03-29T01:53:34.783Z,29.98
2019-03-29T01:56:05.222Z,32.13
2019-03-29T01:58:35.744Z,31.00
2019-03-29T02:01:06.111Z,34.27
2019-03-29T02:03:36.513Z,30.57
2019-03-29T02:06:07.709Z,28.25
2019-03-29T02:08:37.927Z,31.60
2019-03-29T02:11:08.407Z,33.92
2019-03-29T02:13:38.374Z,37.33
2019-03-29T02:16:08.204Z,32.73
2019-03-29T02:18:39.872Z,26.75
2019-03-29T02:21:09.763Z,34.10
2019-03-29T02:23:40.458Z,31.17
2019-03-29T02:26:10.459Z,28.38
2019-03-29T02:28:40.334Z,31.20
2019-03-29T02:31:11.064Z,36.60
2019-03-29T02:33:41.239Z,34.30
2019-03-29T02:36:11.015Z,25.62
2019-03-29T02:38:54.944Z,24.85
2019-03-29T02:41:13.539Z,35.83
2019-03-29T02:43:43.404Z,32.42
2019-03-29T02:46:13.233Z,33.67
2019-03-29T02:48:44.472Z,29.35
2019-03-29T02:51:14.687Z,30.88
2019-03-29T02:53:44.508Z,32.65
2019-03-29T02:56:14.324Z,29.77
2019-03-29T02:58:44.684Z,31.12
2019-03-29T03:01:14.583Z,31.33
2019-03-29T03:03:44.370Z,31.02
2019-03-29T03:06:14.311Z,32.40
2019-03-29T03:08:45.153Z,31.05
2019-03-29T03:11:14.933Z,28.42
2019-03-29T03:13:44.711Z,31.52
2019-03-29T03:16:14.563Z,30.00
2019-03-29T03:18:44.313Z,33.85
2019-03-29T03:21:14.094Z,31.33
2019-03-29T03:23:44.449Z,27.35
2019-03-29T03:26:14.679Z,34.48
2019-03-29T03:28:45.163Z,33.25
2019-03-29T03:31:15.397Z,34.43
2019-03-29T03:33:48.156Z,30.52
2019-03-29T03:36:18.592Z,34.15
2019-03-29T03:38:48.449Z,31.33
2019-03-29T03:41:18.239Z,35.80
2019-03-29T03:43:48.032Z,32.65
2019-03-29T03:46:17.823Z,35.13
2019-03-29T03:48:47.609Z,36.45
2019-03-29T03:51:18.171Z,34.92
2019-03-29T03:53:48.595Z,38.20
2019-03-29T03:56:19.377Z,30.88
2019-03-29T03:58:50.992Z,30.90
2019-03-29T04:01:21.246Z,26.48
2019-03-29T04:03:53.140Z,34.70
2019-03-29T04:06:23.185Z,36.45
2019-03-29T04:08:53.011Z,36.70
2019-03-29T04:11:23.740Z,35.05
2019-03-29T04:13:53.525Z,31.27
2019-03-29T04:16:23.423Z,30.68
2019-03-29T04:18:53.449Z,30.65
2019-03-29T04:21:23.310Z,33.13
2019-03-29T04:23:53.194Z,29.60
2019-03-29T04:26:24.120Z,28.07
2019-03-29T04:29:04.146Z,30.15
2019-03-29T04:31:25.528Z,29.52
2019-03-29T04:33:56.133Z,26.70
2019-03-29T04:36:26.116Z,29.75
2019-03-29T04:38:56.044Z,24.43
2019-03-29T04:41:26.075Z,25.45
2019-03-29T04:43:56.043Z,30.23
2019-03-29T04:46:25.895Z,28.73
2019-03-29T04:48:55.882Z,28.70
2019-03-29T04:51:26.483Z,31.27
2019-03-29T04:53:56.347Z,28.15
2019-03-29T04:56:26.451Z,30.40
2019-03-29T04:58:57.204Z,31.45
2019-03-29T05:01:27.153Z,33.18
2019-03-29T05:03:57.162Z,33.18
2019-03-29T05:06:28.005Z,32.23
2019-03-29T05:08:57.867Z,31.37
2019-03-29T05:11:27.882Z,33.42
2019-03-29T05:13:57.683Z,32.03
2019-03-29T05:16:27.507Z,34.80
2019-03-29T05:18:57.653Z,34.53
2019-03-29T05:21:27.666Z,31.70
2019-03-29T05:23:58.034Z,32.13
2019-03-29T05:26:28.438Z,33.90
2019-03-29T05:28:58.667Z,31.50
2019-03-29T05:31:29.183Z,31.77
2019-03-29T05:34:01.462Z,33.90
2019-03-29T05:36:32.088Z,30.62
2019-03-29T05:39:02.138Z,38.35
2019-03-29T05:41:32.140Z,36.38
2019-03-29T05:44:02.915Z,30.57
2019-03-29T05:46:32.718Z,33.20
2019-03-29T05:49:02.501Z,37.20
2019-03-29T05:51:32.379Z,35.45
2019-03-29T05:54:02.983Z,31.97
2019-03-29T05:56:33.170Z,36.68
2019-03-29T05:59:03.133Z,35.80
2019-03-29T06:01:33.844Z,37.45
2019-03-29T06:04:03.719Z,35.98
2019-03-29T06:06:33.703Z,41.73
2019-03-29T06:09:05.441Z,36.90
2019-03-29T06:11:35.490Z,33.02
2019-03-29T06:14:05.690Z,38.38
2019-03-29T06:16:39.178Z,40.65
2019-03-29T06:19:08.651Z,36.77
2019-03-29T06:21:39.133Z,36.42
2019-03-29T06:24:09.175Z,39.15
2019-03-29T06:26:39.419Z,38.33
2019-03-29T06:29:09.716Z,34.67
2019-03-29T06:31:40.043Z,33.08
2019-03-29T06:34:10.391Z,36.10
2019-03-29T06:36:43.173Z,38.45
2019-03-29T06:39:13.583Z,30.52
2019-03-29T06:41:43.422Z,32.45
2019-03-29T06:44:13.382Z,33.73
2019-03-29T06:46:44.067Z,33.35
2019-03-29T06:49:14.083Z,29.82
2019-03-29T06:51:43.877Z,33.70
2019-03-29T06:54:13.799Z,28.92
2019-03-29T06:56:43.739Z,33.63
2019-03-29T06:59:13.695Z,29.37
2019-03-29T07:01:46.305Z,30.92
2019-03-29T07:04:15.160Z,29.23
2019-03-29T07:06:45.079Z,27.15
2019-03-29T07:09:15.135Z,32.42
2019-03-29T07:11:44.911Z,37.03
2019-03-29T07:14:15.065Z,32.88
2019-03-29T07:16:45.932Z,28.10
2019-03-29T07:19:15.718Z,33.08
2019-03-29T07:21:45.711Z,31.55
2019-03-29T07:24:16.381Z,30.65
2019-03-29T07:26:46.409Z,29.65
2019-03-29T07:29:16.679Z,28.92
2019-03-29T07:31:47.151Z,31.55
2019-03-29T07:34:18.094Z,28.50
2019-03-29T07:36:48.067Z,30.80
2019-03-29T07:39:18.014Z,27.15
2019-03-29T07:41:48.047Z,34.73
2019-03-29T07:44:18.322Z,26.90
2019-03-29T07:46:48.687Z,29.75
2019-03-29T07:49:18.595Z,26.02
2019-03-29T07:51:49.099Z,21.68
2019-03-29T07:54:19.383Z,24.92
2019-03-29T07:56:49.350Z,20.10
2019-03-29T07:59:19.146Z,28.07
2019-03-29T08:01:49.562Z,28.35
2019-03-29T08:04:21.635Z,22.67
2019-03-29T08:06:51.462Z,20.65
2019-03-29T08:09:22.861Z,19.65
2019-03-29T08:11:53.279Z,21.12
2019-03-29T08:14:23.197Z,22.65
2019-03-29T08:16:53.107Z,20.37
2019-03-29T08:19:23.158Z,21.45
2019-03-29T08:21:53.091Z,22.15
2019-03-29T08:24:23.235Z,25.45
2019-03-29T08:26:53.486Z,14.80
2019-03-29T08:29:23.670Z,14.50
2019-03-29T08:31:55.743Z,17.37
2019-03-29T08:34:26.717Z,19.95
2019-03-29T08:36:57.511Z,15.93
2019-03-29T08:39:28.524Z,19.67
2019-03-29T08:42:00.742Z,17.75
2019-03-29T08:44:31.035Z,20.52
2019-03-29T08:47:01.102Z,19.77
2019-03-29T08:49:31.127Z,23.92
2019-03-29T08:52:01.101Z,20.88
2019-03-29T08:54:31.399Z,21.95
2019-03-29T08:57:02.127Z,16.48
2019-03-29T08:59:31.990Z,19.42
2019-03-29T09:02:03.322Z,18.07
2019-03-29T09:04:33.175Z,18.42
2019-03-29T09:07:03.053Z,22.93
2019-03-29T09:09:33.411Z,20.90
2019-03-29T09:12:13.859Z,20.32
2019-03-29T09:14:35.351Z,22.32
2019-03-29T09:17:05.171Z,21.65
2019-03-29T09:19:35.130Z,24.10
2019-03-29T09:22:05.112Z,22.48
2019-03-29T09:24:35.165Z,24.98
2019-03-29T09:27:05.183Z,22.77
2019-03-29T09:29:35.390Z,26.50
2019-03-29T09:32:05.510Z,20.70
2019-03-29T09:34:36.424Z,23.83
2019-03-29T09:37:06.335Z,25.43
2019-03-29T09:39:36.323Z,26.52
2019-03-29T09:42:28.828Z,21.40
2019-03-29T09:44:51.075Z,25.60
2019-03-29T09:47:21.711Z,25.68
2019-03-29T09:49:55.519Z,23.02
2019-03-29T09:52:25.955Z,23.40
2019-03-29T09:54:55.739Z,25.27
2019-03-29T09:57:36.928Z,24.35
2019-03-29T09:59:57.741Z,23.95
2019-03-29T10:02:27.715Z,28.70
2019-03-29T10:04:57.769Z,23.15
2019-03-29T10:07:28.099Z,20.70
2019-03-29T10:09:58.182Z,28.95
2019-03-29T10:12:42.327Z,29.12
2019-03-29T10:15:00.362Z,22.60
2019-03-29T10:17:30.611Z,22.13
2019-03-29T10:20:01.153Z,23.47
2019-03-29T10:22:32.102Z,22.02
2019-03-29T10:25:02.764Z,20.65
2019-03-29T10:27:33.390Z,19.05
2019-03-29T10:30:03.979Z,19.98
2019-03-29T10:32:34.751Z,23.02
2019-03-29T10:35:06.903Z,24.95
2019-03-29T10:37:37.383Z,16.93
2019-03-29T10:40:08.159Z,19.17
2019-03-29T10:42:40.036Z,20.25
2019-03-29T10:45:09.793Z,18.30
2019-03-29T10:47:44.065Z,14.45
2019-03-29T10:50:11.698Z,14.78
2019-03-29T10:52:41.691Z,17.12
2019-03-29T10:55:11.473Z,17.05
2019-03-29T10:57:41.450Z,19.57
2019-03-29T11:00:21.605Z,18.65
2019-03-29T11:02:51.779Z,16.80
2019-03-29T11:05:21.714Z,16.27
2019-03-29T11:07:52.087Z,16.97
2019-03-29T11:10:33.223Z,15.95
2019-03-29T11:13:12.784Z,17.32
2019-03-29T11:15:34.926Z,14.87
2019-03-29T11:18:05.919Z,15.18
2019-03-29T11:20:36.282Z,11.12
2019-03-29T11:23:06.321Z,14.40
2019-03-29T11:25:36.399Z,11.53
2019-03-29T11:28:06.857Z,11.97
2019-03-29T11:30:42.489Z,11.73
2019-03-29T11:33:08.724Z,17.67
2019-03-29T11:35:39.406Z,13.68
2019-03-29T11:38:09.438Z,13.20
2019-03-29T11:40:39.788Z,12.18
2019-03-29T11:43:09.698Z,14.18
2019-03-29T11:45:39.751Z,13.32
2019-03-29T11:48:09.935Z,17.37
2019-03-29T11:50:39.956Z,14.40
2019-03-29T11:53:09.781Z,15.43
2019-03-29T11:55:39.806Z,12.82
2019-03-29T11:58:10.344Z,14.85
2019-03-29T12:00:41.526Z,15.58
2019-03-29T12:03:11.919Z,13.55
2019-03-29T12:05:41.703Z,12.37
2019-03-29T12:08:11.554Z,15.13
2019-03-29T12:10:41.846Z,15.72
2019-03-29T12:13:12.075Z,14.83
2019-03-29T12:15:41.967Z,16.48
2019-03-29T12:18:11.757Z,11.55
2019-03-29T12:20:41.570Z,19.00
2019-03-29T12:23:12.155Z,15.58
2019-03-29T12:25:42.007Z,13.35
2019-03-29T12:28:11.985Z,11.45
2019-03-29T12:30:42.029Z,12.65
2019-03-29T12:33:12.048Z,14.55
2019-03-29T12:35:41.823Z,11.90
2019-03-29T12:38:11.651Z,13.48
2019-03-29T12:40:45.038Z,16.95
2019-03-29T12:43:13.452Z,14.20
2019-03-29T12:45:43.275Z,16.42
2019-03-29T12:48:13.075Z,18.07
2019-03-29T12:50:43.095Z,12.93
2019-03-29T12:53:13.395Z,12.47
2019-03-29T12:55:43.667Z,13.40
2019-03-29T12:58:13.998Z,14.10
2019-03-29T13:00:44.076Z,10.93
2019-03-29T13:03:14.567Z,10.80
2019-03-29T13:05:44.757Z,10.55
2019-03-29T13:08:14.847Z,9.25
2019-03-29T13:10:44.630Z,11.85
2019-03-29T13:13:14.407Z,9.40
2019-03-29T13:15:44.222Z,13.48
2019-03-29T13:18:14.002Z,11.48
2019-03-29T13:20:44.022Z,6.67
2019-03-29T13:23:14.039Z,8.40
2019-03-29T13:25:44.008Z,8.95
2019-03-29T13:28:14.071Z,7.95
2019-03-29T13:30:43.902Z,15.95
2019-03-29T13:33:13.992Z,10.05
2019-03-29T13:35:44.641Z,8.33
2019-03-29T13:38:15.271Z,8.23
2019-03-29T13:40:45.047Z,10.05
2019-03-29T13:43:15.526Z,13.13
2019-03-29T13:45:45.430Z,11.00
2019-03-29T13:48:15.656Z,10.88
2019-03-29T13:50:46.390Z,13.43
2019-03-29T13:53:16.338Z,10.72
2019-03-29T13:55:46.616Z,11.38
2019-03-29T13:58:16.834Z,11.18
2019-03-29T14:00:47.091Z,11.55
2019-03-29T14:03:17.362Z,16.02
2019-03-29T14:05:47.606Z,14.00
2019-03-29T14:08:18.039Z,18.05
2019-03-29T14:10:48.327Z,12.07
2019-03-29T14:13:19.797Z,13.48
2019-03-29T14:15:49.787Z,11.90
2019-03-29T14:18:19.714Z,13.00
2019-03-29T14:20:49.496Z,12.58
2019-03-29T14:23:19.725Z,10.50
2019-03-29T14:25:49.970Z,14.40
2019-03-29T14:28:20.343Z,12.85
2019-03-29T14:30:50.337Z,13.60
2019-03-29T14:33:20.582Z,15.55
2019-03-29T14:35:50.896Z,14.13
2019-03-29T14:38:21.305Z,13.58
2019-03-29T14:40:55.099Z,15.10
2019-03-29T14:43:25.164Z,15.35
2019-03-29T14:45:55.074Z,13.48
2019-03-29T14:48:25.143Z,16.85
2019-03-29T14:50:55.425Z,14.83
2019-03-29T14:53:25.439Z,13.65
2019-03-29T14:55:55.887Z,18.95
2019-03-29T14:58:26.627Z,12.93
2019-03-29T15:00:56.442Z,13.75
2019-03-29T15:03:26.298Z,15.63
2019-03-29T15:05:56.074Z,13.30
2019-03-29T15:08:26.078Z,19.65
2019-03-29T15:10:56.035Z,13.60
2019-03-29T15:13:25.998Z,15.18
2019-03-29T15:15:55.996Z,17.73
2019-03-29T15:18:26.288Z,19.98
2019-03-29T15:20:56.390Z,17.23
2019-03-29T15:23:27.077Z,16.87
2019-03-29T15:25:57.057Z,17.82
2019-03-29T15:28:27.311Z,16.80
2019-03-29T15:30:57.430Z,21.12
2019-03-29T15:33:28.035Z,21.20
2019-03-29T15:35:58.311Z,19.70
2019-03-29T15:38:28.671Z,15.85
2019-03-29T15:40:58.598Z,16.30
2019-03-29T15:43:28.671Z,16.48
2019-03-29T15:45:58.677Z,17.23
2019-03-29T15:48:28.663Z,17.32
2019-03-29T15:50:59.905Z,18.82
2019-03-29T15:53:30.414Z,18.20
2019-03-29T15:56:01.322Z,19.27
2019-03-29T15:58:31.243Z,17.20
2019-03-29T16:01:02.472Z,18.20
2019-03-29T16:03:32.783Z,19.85
2019-03-29T16:06:02.725Z,19.12
2019-03-29T16:08:32.726Z,18.90
2019-03-29T16:11:02.711Z,20.88
2019-03-29T16:13:32.527Z,19.70
2019-03-29T16:16:03.195Z,16.75
2019-03-29T16:18:33.252Z,21.48
2019-03-29T16:21:04.072Z,17.62
2019-03-29T16:23:33.875Z,14.45
2019-03-29T16:26:04.150Z,18.98
2019-03-29T16:28:34.407Z,27.45
2019-03-29T16:31:04.737Z,17.95
2019-03-29T16:33:34.599Z,17.48
2019-03-29T16:36:05.204Z,18.60
2019-03-29T16:38:35.251Z,18.05
2019-03-29T16:41:05.794Z,18.35
2019-03-29T16:43:35.860Z,19.67
2019-03-29T16:46:06.123Z,23.30
2019-03-29T16:48:36.453Z,18.45
2019-03-29T16:51:06.734Z,17.77
2019-03-29T16:53:39.708Z,19.37
2019-03-29T16:56:11.838Z,17.42
2019-03-29T16:58:40.162Z,18.25
2019-03-29T17:01:09.975Z,16.52
2019-03-29T17:03:39.839Z,20.00
2019-03-29T17:06:10.827Z,16.57
2019-03-29T17:08:40.827Z,14.23
2019-03-29T17:11:11.511Z,19.67
2019-03-29T17:13:41.289Z,15.48
2019-03-29T17:16:11.217Z,15.60
2019-03-29T17:18:41.003Z,17.35
2019-03-29T17:21:11.004Z,16.73
2019-03-29T17:23:40.970Z,17.32
2019-03-29T17:26:11.843Z,19.70
2019-03-29T17:28:41.631Z,17.65
2019-03-29T17:31:13.119Z,16.12
2019-03-29T17:33:43.871Z,18.77
2019-03-29T17:36:13.987Z,17.87
2019-03-29T17:38:43.974Z,17.10
2019-03-29T17:41:14.523Z,23.52
2019-03-29T17:43:45.375Z,22.93
2019-03-29T17:46:16.856Z,29.05
2019-03-29T17:48:47.475Z,20.02
2019-03-29T17:51:17.812Z,18.57
2019-03-29T17:53:48.263Z,19.98
2019-03-29T17:56:18.452Z,22.75
2019-03-29T17:58:48.446Z,26.90
2019-03-29T18:01:18.867Z,26.23
2019-03-29T18:03:49.220Z,29.52
2019-03-29T18:06:19.596Z,26.80
2019-03-29T18:08:49.570Z,23.90
2019-03-29T18:11:20.774Z,26.90
2019-03-29T18:13:50.567Z,28.80
2019-03-29T18:16:30.409Z,23.55
2019-03-29T18:18:52.159Z,24.63
2019-03-29T18:21:22.995Z,26.57
2019-03-29T18:23:53.258Z,27.22
2019-03-29T18:26:24.238Z,28.30
2019-03-29T18:28:54.223Z,27.10
2019-03-29T18:31:24.214Z,26.17
2019-03-29T18:33:55.027Z,27.13
2019-03-29T18:36:24.822Z,25.92
2019-03-29T18:38:54.844Z,31.20
2019-03-29T18:41:25.699Z,28.65
2019-03-29T18:43:55.571Z,29.18
2019-03-29T18:46:25.419Z,30.37
2019-03-29T18:48:55.243Z,27.87
2019-03-29T18:51:25.310Z,29.50
2019-03-29T18:53:56.278Z,34.45
2019-03-29T18:56:26.114Z,30.72
2019-03-29T18:58:55.895Z,35.15
2019-03-29T19:01:25.734Z,32.03
2019-03-29T19:03:55.555Z,30.48
2019-03-29T19:06:25.357Z,32.42
2019-03-29T19:08:55.621Z,33.98
2019-03-29T19:11:25.844Z,42.23
2019-03-29T19:13:56.083Z,28.70
2019-03-29T19:16:26.500Z,38.17
2019-03-29T19:19:09.363Z,34.35
2019-03-29T19:21:28.191Z,35.25
2019-03-29T19:23:58.020Z,35.52
2019-03-29T19:26:27.877Z,32.48
2019-03-29T19:28:57.662Z,32.90
2019-03-29T19:31:27.873Z,34.45
2019-03-29T19:33:58.100Z,35.98
2019-03-29T19:36:28.631Z,36.73
2019-03-29T19:38:59.379Z,37.53
2019-03-29T19:41:29.203Z,38.75
2019-03-29T19:43:59.028Z,37.73
2019-03-29T19:46:31.420Z,43.40
2019-03-29T19:49:01.210Z,42.15
2019-03-29T19:51:31.279Z,47.93
2019-03-29T19:54:07.633Z,48.28
2019-03-29T19:56:33.814Z,50.52
2019-03-29T19:59:03.635Z,51.83
2019-03-29T20:01:33.463Z,51.08
2019-03-29T20:04:04.123Z,50.25
2019-03-29T20:06:33.937Z,47.90
2019-03-29T20:09:05.631Z,46.45
2019-03-29T20:11:35.561Z,49.45
2019-03-29T20:14:06.302Z,57.27
2019-03-29T20:16:36.218Z,50.90
2019-03-29T20:19:07.268Z,46.30
2019-03-29T20:21:37.930Z,46.18
2019-03-29T20:24:08.179Z,46.05
2019-03-29T20:26:38.432Z,40.78
2019-03-29T20:29:08.840Z,41.92
2019-03-29T20:31:38.887Z,42.98
2019-03-29T20:34:09.207Z,47.23
2019-03-29T20:36:39.578Z,42.70
2019-03-29T20:39:12.187Z,48.23
2019-03-29T20:41:42.731Z,48.92
2019-03-29T20:44:12.808Z,47.95
2019-03-29T20:46:42.806Z,45.10
2019-03-29T20:49:12.619Z,46.98
2019-03-29T20:51:42.547Z,48.13
2019-03-29T20:54:12.443Z,51.28
2019-03-29T20:56:42.456Z,52.33
2019-03-29T20:59:12.503Z,52.05
2019-03-29T21:01:42.508Z,52.70
2019-03-29T21:04:12.295Z,49.00
2019-03-29T21:06:43.575Z,58.17
2019-03-29T21:09:13.394Z,53.20
2019-03-29T21:11:45.795Z,50.45
2019-03-29T21:14:15.597Z,49.75
2019-03-29T21:16:45.895Z,49.77
2019-03-29T21:19:15.680Z,46.02
2019-03-29T21:21:45.527Z,48.13
2019-03-29T21:24:16.600Z,50.10
2019-03-29T21:26:47.575Z,50.03
2019-03-29T21:29:17.534Z,50.35
2019-03-29T21:31:47.524Z,49.23
2019-03-29T21:34:18.203Z,56.13
2019-03-29T21:36:48.022Z,56.55
2019-03-29T21:39:18.250Z,57.83
2019-03-29T21:41:48.039Z,50.45
2019-03-29T21:44:17.842Z,53.00
2019-03-29T21:46:47.659Z,54.30
2019-03-29T21:49:18.439Z,60.35
2019-03-29T21:51:50.460Z,60.67
2019-03-29T21:54:20.455Z,60.58
2019-03-29T21:56:50.438Z,61.42
2019-03-29T21:59:20.223Z,67.92
2019-03-29T22:01:50.261Z,69.55
2019-03-29T22:04:20.039Z,64.40
2019-03-29T22:06:49.823Z,69.42
2019-03-29T22:09:21.016Z,67.05
2019-03-29T22:11:50.794Z,68.83
2019-03-29T22:14:20.575Z,65.80
2019-03-29T22:16:50.397Z,57.95
2019-03-29T22:19:21.215Z,59.90
2019-03-29T22:21:50.998Z,65.78
2019-03-29T22:24:20.824Z,55.90
2019-03-29T22:26:50.606Z,59.95
2019-03-29T22:29:20.732Z,61.37
2019-03-29T22:31:51.163Z,57.85
2019-03-29T22:34:21.458Z,54.63
2019-03-29T22:36:51.955Z,56.50
2019-03-29T22:39:22.734Z,61.70
2019-03-29T22:41:52.516Z,60.48
2019-03-29T22:44:23.409Z,56.28
2019-03-29T22:46:53.371Z,59.53
2019-03-29T22:49:23.180Z,63.28
2019-03-29T22:51:53.227Z,55.52
2019-03-29T22:54:23.053Z,55.98
2019-03-29T22:56:52.815Z,57.55
2019-03-29T22:59:22.609Z,48.83
2019-03-29T23:01:52.499Z,55.63
2019-03-29T23:04:22.289Z,58.80
2019-03-29T23:06:52.064Z,56.15
2019-03-29T23:09:22.468Z,51.95
2019-03-29T23:11:52.767Z,53.60
2019-03-29T23:14:23.030Z,52.20
2019-03-29T23:16:53.258Z,49.58
2019-03-29T23:19:23.855Z,52.10
2019-03-29T23:21:54.129Z,53.68
2019-03-29T23:24:23.964Z,51.70
2019-03-29T23:26:53.743Z,51.08
2019-03-29T23:29:24.488Z,60.58
2019-03-29T23:31:54.302Z,55.43
2019-03-29T23:34:24.157Z,51.40
2019-03-29T23:36:54.450Z,54.83
2019-03-29T23:39:24.453Z,52.40
2019-03-29T23:41:54.290Z,54.35
2019-03-29T23:44:24.070Z,53.30
2019-03-29T23:46:54.811Z,56.58
2019-03-29T23:49:24.594Z,57.88
2019-03-29T23:51:54.366Z,58.05
2019-03-29T23:54:24.246Z,55.35
2019-03-29T23:56:54.026Z,56.10
2019-03-29T23:59:23.828Z,55.45
